Airfield :
LOGIN :

Register | Disclaimer

   EN    FR    IT 

 










Legend :    VFR   Marginal VFR   IFR   Intensive IFR   Very Intensive IFR
Visi :
Ceiling :
>= 8 km
>= 3000ft
5 to 8 km
1000 to 3000 ft
1500m to 5 km
500 to 1000 ft
800 to 1500m
200 to 500 ft
< 800m
< 200 ft
Symbols :   Thunderstorms  Fog  Heavy snow  Heavy precipitations  Wind > 20 kt
SIGMETs :     Misc.  Thunderstorms  Icing  Turbulence  Mountain Waves  Volcanic Ashes






- Airport Elevation : 112 ft
- IATA code : KIR


EIKY - Kerry Farranfore

CURRENT METAR :
  • 261930Z 23013KT CAVOK 06/03 Q0998

EXPIRED METARs :
  • 261900Z 20010KT 9999 FEW031 05/03 Q0998
  • 261830Z 18012KT 9999 -RA FEW019 SCT027 05/03 Q0998
  • 261800Z 18013KT 9999 -RA FEW011 OVC031 04/02 Q0999 RESHRASN
  • 261730Z 19013KT 160V220 7000 RA FEW011 BKN019 OVC031 03/02 Q0999
  • 261700Z 21015G30KT 9999 -RA OVC036 06/01 Q1000

TAF TAF EIKY
Valid from the 26 at 18:00 until the 27 at 03:00 UTC


261700Z 2618/2703 17015G25KT 9999 FEW012 BKN028
TEMPO 2618/2621 20018G30KT 4000 SHRAGS BKN010 FEW018CB
BECMG 2619/2621 23016G30KT
PROB40 2620/2621 3000 -SHRASN BKN009



MET'MAP, your aeronautical weather chart ! - Copyright ORBIFLY December 2007 - Disclaimer

ORBIFLY MET'MAP TEAM :

Programming & Development : Alexandra Zaïnal
Concept & original design : Baudouin d'Aumeries
Assistance for programming : Marc-Olivier Méhu
Technical & hardware support : Manuel Goepfert

Contact : metmap@orbifly.com




SOURCES & CREDITS :

   NOAA